createdAt,value
2023-02-14T00:01:23.603Z,4.53
2023-02-14T00:03:51.080Z,3.80
2023-02-14T00:06:18.663Z,5.40
2023-02-14T00:08:46.248Z,5.63
2023-02-14T00:11:15.471Z,4.80
2023-02-14T00:14:06.091Z,2.95
2023-02-14T00:16:33.739Z,4.03
2023-02-14T00:19:04.034Z,3.97
2023-02-14T00:21:33.535Z,5.95
2023-02-14T00:24:01.076Z,4.85
2023-02-14T00:26:28.621Z,4.47
2023-02-14T00:28:56.141Z,3.58
2023-02-14T00:31:24.655Z,3.40
2023-02-14T00:33:52.313Z,4.10
2023-02-14T00:36:22.015Z,3.67
2023-02-14T00:38:50.866Z,1.88
2023-02-14T00:41:21.037Z,4.07
2023-02-14T00:43:53.835Z,5.65
2023-02-14T00:46:24.018Z,6.35
2023-02-14T00:48:52.582Z,3.47
2023-02-14T00:51:21.192Z,5.00
2023-02-14T00:53:51.849Z,4.97
2023-02-14T00:56:20.843Z,6.03
2023-02-14T00:58:48.863Z,4.30
2023-02-14T01:01:19.638Z,6.82
2023-02-14T01:03:47.969Z,5.82
2023-02-14T01:06:15.621Z,1.27
2023-02-14T01:08:43.484Z,5.53
2023-02-14T01:11:13.890Z,5.05
2023-02-14T01:13:41.976Z,5.78
2023-02-14T01:16:12.879Z,5.30
2023-02-14T01:18:41.668Z,5.10
2023-02-14T01:21:30.853Z,6.43
2023-02-14T01:24:02.398Z,3.58
2023-02-14T01:26:31.006Z,6.50
2023-02-14T01:29:02.128Z,3.90
2023-02-14T01:31:32.902Z,5.30
2023-02-14T01:34:00.806Z,5.35
2023-02-14T01:36:38.794Z,5.95
2023-02-14T01:39:14.071Z,5.38
2023-02-14T01:41:44.677Z,5.45
2023-02-14T01:44:14.979Z,3.95
2023-02-14T01:46:44.834Z,5.55
2023-02-14T01:49:15.127Z,2.72
2023-02-14T01:51:49.348Z,4.13
2023-02-14T01:54:18.547Z,4.53
2023-02-14T01:56:54.209Z,2.88
2023-02-14T01:59:27.512Z,2.33
2023-02-14T02:01:58.720Z,4.20
2023-02-14T02:04:35.330Z,4.68
2023-02-14T02:07:08.341Z,8.70
2023-02-14T02:10:08.648Z,4.30
2023-02-14T02:12:38.492Z,5.10
2023-02-14T02:15:07.663Z,5.25
2023-02-14T02:17:56.930Z,3.97
2023-02-14T02:20:42.568Z,3.75
2023-02-14T02:23:21.692Z,4.78
2023-02-14T02:25:54.549Z,5.60
2023-02-14T02:28:49.254Z,5.23
2023-02-14T02:31:28.562Z,4.97
2023-02-14T02:34:53.949Z,6.55
2023-02-14T02:37:36.573Z,5.00
2023-02-14T02:40:25.694Z,4.75
2023-02-14T02:43:08.108Z,5.68
2023-02-14T02:46:16.683Z,4.53
2023-02-14T02:48:53.869Z,4.88
2023-02-14T02:52:12.157Z,7.22
2023-02-14T02:54:55.069Z,6.13
2023-02-14T02:57:39.676Z,5.05
2023-02-14T03:00:12.765Z,4.32
2023-02-14T03:03:14.357Z,4.37
2023-02-14T03:05:43.188Z,4.38
2023-02-14T03:08:10.908Z,4.90
2023-02-14T03:10:40.127Z,5.85
2023-02-14T03:13:26.892Z,2.80
2023-02-14T03:16:12.793Z,4.68
2023-02-14T03:19:06.306Z,4.18
2023-02-14T03:22:08.997Z,5.57
2023-02-14T03:25:04.405Z,3.90
2023-02-14T03:27:59.360Z,4.07
2023-02-14T03:30:48.756Z,4.57
2023-02-14T03:33:48.078Z,5.22
2023-02-14T03:36:26.858Z,4.15
2023-02-14T03:39:06.043Z,5.57
2023-02-14T03:41:42.334Z,4.03
2023-02-14T03:44:11.728Z,5.13
2023-02-14T03:47:10.198Z,4.13
2023-02-14T03:49:44.008Z,5.95
2023-02-14T03:52:13.308Z,7.05
2023-02-14T03:54:42.324Z,8.00
2023-02-14T03:57:20.335Z,10.45
2023-02-14T03:59:49.188Z,5.75
2023-02-14T04:02:40.322Z,3.90
2023-02-14T04:05:17.465Z,6.68
2023-02-14T04:07:48.444Z,2.58
2023-02-14T04:10:17.104Z,2.55
2023-02-14T04:12:44.895Z,3.90
2023-02-14T04:15:13.368Z,4.03
2023-02-14T04:17:59.791Z,4.25
2023-02-14T04:20:28.489Z,4.53
2023-02-14T04:22:56.150Z,4.35
2023-02-14T04:25:23.837Z,4.50
2023-02-14T04:27:51.543Z,6.45
2023-02-14T04:30:21.201Z,3.50
2023-02-14T04:32:49.837Z,5.28
2023-02-14T04:35:17.666Z,6.40
2023-02-14T04:37:45.938Z,4.93
2023-02-14T04:40:17.468Z,4.85
2023-02-14T04:42:46.561Z,7.43
2023-02-14T04:45:14.509Z,4.03
2023-02-14T04:47:42.174Z,4.05
2023-02-14T04:50:10.062Z,3.90
2023-02-14T04:52:37.697Z,4.53
2023-02-14T04:55:06.052Z,4.30
2023-02-14T04:57:33.646Z,4.25
2023-02-14T05:00:01.485Z,6.75
2023-02-14T05:02:32.598Z,6.13
2023-02-14T05:05:00.156Z,4.40
2023-02-14T05:07:27.802Z,6.80
2023-02-14T05:09:55.402Z,4.60
2023-02-14T05:12:23.012Z,6.40
2023-02-14T05:14:50.677Z,5.05
2023-02-14T05:17:18.195Z,4.05
2023-02-14T05:19:45.896Z,6.65
2023-02-14T05:22:13.499Z,5.93
2023-02-14T05:24:41.058Z,4.13
2023-02-14T05:27:08.576Z,6.28
2023-02-14T05:29:36.123Z,6.00
2023-02-14T05:32:04.217Z,5.00
2023-02-14T05:34:31.856Z,4.10
2023-02-14T05:36:59.360Z,5.53
2023-02-14T05:39:26.903Z,4.28
2023-02-14T05:41:54.489Z,4.47
2023-02-14T05:44:22.354Z,2.35
2023-02-14T05:46:50.261Z,3.67
2023-02-14T05:49:17.835Z,4.20
2023-02-14T05:51:45.387Z,5.13
2023-02-14T05:54:12.935Z,5.20
2023-02-14T05:56:40.547Z,4.85
2023-02-14T05:59:08.078Z,4.80
2023-02-14T06:01:35.611Z,4.60
2023-02-14T06:04:03.637Z,5.88
2023-02-14T06:06:31.183Z,6.55
2023-02-14T06:08:58.928Z,7.65
2023-02-14T06:11:26.476Z,7.80
2023-02-14T06:13:53.968Z,6.22
2023-02-14T06:16:21.552Z,6.40
2023-02-14T06:18:48.995Z,6.68
2023-02-14T06:21:16.541Z,4.68
2023-02-14T06:23:44.048Z,5.38
2023-02-14T06:26:11.541Z,5.32
2023-02-14T06:28:39.951Z,5.72
2023-02-14T06:31:07.525Z,3.88
2023-02-14T06:33:35.047Z,5.68
2023-02-14T06:36:02.831Z,3.88
2023-02-14T06:38:30.455Z,3.95
2023-02-14T06:41:06.664Z,4.72
2023-02-14T06:43:34.601Z,5.15
2023-02-14T06:46:02.413Z,5.00
2023-02-14T06:48:30.421Z,3.45
2023-02-14T06:50:58.303Z,6.22
2023-02-14T06:53:26.008Z,3.88
2023-02-14T06:55:53.840Z,5.38
2023-02-14T06:58:21.870Z,4.35
2023-02-14T07:00:49.465Z,2.58
2023-02-14T07:03:17.034Z,3.88
2023-02-14T07:05:45.518Z,5.70
2023-02-14T07:08:13.154Z,2.67
2023-02-14T07:10:40.999Z,6.35
2023-02-14T07:13:08.506Z,5.10
2023-02-14T07:15:36.267Z,5.85
2023-02-14T07:18:03.968Z,5.32
2023-02-14T07:20:31.636Z,6.97
2023-02-14T07:22:59.271Z,6.22
2023-02-14T07:25:28.591Z,5.30
2023-02-14T07:27:56.217Z,4.80
2023-02-14T07:30:23.953Z,4.60
2023-02-14T07:32:51.555Z,6.22
2023-02-14T07:35:19.156Z,7.45
2023-02-14T07:37:46.687Z,8.05
2023-02-14T07:40:15.261Z,6.50
2023-02-14T07:42:44.224Z,5.93
2023-02-14T07:45:21.182Z,6.93
2023-02-14T07:47:50.732Z,5.40
2023-02-14T07:50:18.720Z,6.40
2023-02-14T07:52:46.602Z,6.28
2023-02-14T07:55:14.677Z,7.55
2023-02-14T07:57:42.316Z,5.53
2023-02-14T08:00:10.421Z,5.45
2023-02-14T08:02:40.652Z,4.20
2023-02-14T08:05:08.450Z,6.50
2023-02-14T08:07:36.055Z,4.15
2023-02-14T08:10:03.821Z,5.40
2023-02-14T08:12:49.881Z,6.70
2023-02-14T08:15:46.415Z,3.80
2023-02-14T08:18:14.498Z,6.28
2023-02-14T08:20:42.248Z,6.22
2023-02-14T08:23:10.462Z,4.03
2023-02-14T08:25:38.244Z,6.50
2023-02-14T08:28:06.210Z,5.50
2023-02-14T08:30:36.291Z,7.88
2023-02-14T08:33:04.195Z,7.88
2023-02-14T08:35:31.733Z,6.85
2023-02-14T08:37:59.601Z,13.27
2023-02-14T08:40:27.467Z,11.38
2023-02-14T08:42:55.161Z,11.20
2023-02-14T08:45:22.882Z,10.60
2023-02-14T08:47:51.025Z,11.13
2023-02-14T08:50:19.427Z,13.02
2023-02-14T08:52:47.004Z,14.38
2023-02-14T08:55:14.902Z,14.00
2023-02-14T08:57:42.472Z,12.48
2023-02-14T09:00:10.719Z,12.57
2023-02-14T09:02:38.358Z,13.43
2023-02-14T09:05:08.329Z,5.38
2023-02-14T09:07:36.804Z,14.30
2023-02-14T09:10:04.757Z,12.80
2023-02-14T09:12:32.422Z,11.13
2023-02-14T09:14:59.914Z,10.57
2023-02-14T09:17:27.562Z,9.73
2023-02-14T09:19:55.195Z,10.23
2023-02-14T09:22:22.727Z,9.93
2023-02-14T09:24:50.267Z,11.20
2023-02-14T09:27:17.842Z,10.10
2023-02-14T09:29:45.399Z,9.35
2023-02-14T09:32:13.110Z,5.85
2023-02-14T09:34:58.895Z,9.15
2023-02-14T09:37:45.134Z,7.05
2023-02-14T09:40:20.517Z,6.65
2023-02-14T09:43:24.549Z,7.38
2023-02-14T09:45:57.058Z,8.68
2023-02-14T09:48:38.110Z,6.28
2023-02-14T09:51:15.646Z,8.15
2023-02-14T09:53:45.924Z,8.85
2023-02-14T09:56:37.336Z,10.80
2023-02-14T09:59:13.905Z,7.32
2023-02-14T10:01:54.856Z,7.60
2023-02-14T10:04:34.106Z,7.20
2023-02-14T10:07:10.594Z,6.28
2023-02-14T10:10:20.684Z,6.90
2023-02-14T10:12:57.239Z,7.63
2023-02-14T10:15:28.494Z,10.15
2023-02-14T10:18:25.572Z,8.65
2023-02-14T10:21:00.477Z,10.65
2023-02-14T10:23:33.933Z,8.27
2023-02-14T10:26:05.046Z,8.05
2023-02-14T10:28:46.515Z,9.98
2023-02-14T10:31:32.469Z,8.70
2023-02-14T10:34:29.143Z,7.38
2023-02-14T10:37:18.448Z,8.50
2023-02-14T10:40:20.459Z,9.32
2023-02-14T10:43:20.820Z,8.32
2023-02-14T10:45:59.531Z,6.45
2023-02-14T10:48:49.153Z,6.35
2023-02-14T10:51:33.940Z,5.78
2023-02-14T10:54:21.963Z,5.65
2023-02-14T10:57:00.901Z,6.80
2023-02-14T10:59:52.696Z,6.72
2023-02-14T11:02:25.307Z,8.02
2023-02-14T11:04:53.277Z,7.38
2023-02-14T11:07:22.134Z,8.75
2023-02-14T11:09:50.042Z,6.90
2023-02-14T11:12:39.916Z,6.50
2023-02-14T11:15:10.492Z,6.57
2023-02-14T11:17:38.330Z,7.45
2023-02-14T11:20:23.877Z,8.93
2023-02-14T11:22:51.718Z,8.38
2023-02-14T11:25:20.702Z,7.47
2023-02-14T11:27:51.390Z,10.48
2023-02-14T11:30:34.177Z,9.82
2023-02-14T11:33:03.395Z,9.13
2023-02-14T11:35:35.247Z,8.20
2023-02-14T11:38:06.680Z,7.38
2023-02-14T11:40:36.073Z,8.85
2023-02-14T11:43:14.790Z,9.55
2023-02-14T11:45:46.037Z,8.52
2023-02-14T11:48:55.731Z,7.30
2023-02-14T11:51:29.956Z,9.40
2023-02-14T11:54:05.000Z,9.65
2023-02-14T11:56:50.762Z,10.13
2023-02-14T11:59:29.634Z,12.27
2023-02-14T12:02:01.309Z,9.45
2023-02-14T12:04:46.077Z,9.38
2023-02-14T12:07:18.432Z,9.45
2023-02-14T12:09:48.445Z,9.77
2023-02-14T12:12:17.740Z,9.82
2023-02-14T12:14:45.515Z,9.27
2023-02-14T12:17:34.565Z,8.93
2023-02-14T12:20:11.745Z,9.60
2023-02-14T12:23:19.305Z,8.98
2023-02-14T12:26:06.809Z,9.95
2023-02-14T12:28:48.100Z,10.20
2023-02-14T12:31:17.453Z,8.88
2023-02-14T12:33:46.871Z,11.20
2023-02-14T12:36:18.423Z,4.15
2023-02-14T12:39:02.199Z,7.45
2023-02-14T12:42:00.527Z,11.20
2023-02-14T12:44:49.452Z,13.65
2023-02-14T12:47:40.961Z,11.80
2023-02-14T12:50:19.642Z,12.10
2023-02-14T12:53:13.105Z,13.60
2023-02-14T12:56:03.351Z,12.88
2023-02-14T12:58:38.227Z,17.45
2023-02-14T13:01:43.646Z,13.38
2023-02-14T13:04:23.297Z,17.50
2023-02-14T13:07:28.500Z,12.05
2023-02-14T13:10:31.278Z,14.38
2023-02-14T13:12:58.860Z,16.20
2023-02-14T13:15:38.868Z,14.88
2023-02-14T13:18:44.680Z,12.45
2023-02-14T13:21:16.823Z,17.70
2023-02-14T13:23:53.209Z,13.18
2023-02-14T13:26:32.564Z,20.98
2023-02-14T13:29:11.432Z,15.38
2023-02-14T13:31:40.623Z,9.27
2023-02-14T13:34:34.551Z,11.68
2023-02-14T13:37:06.669Z,11.60
2023-02-14T13:39:50.817Z,20.13
2023-02-14T13:42:52.242Z,15.75
2023-02-14T13:45:41.038Z,12.10
2023-02-14T13:48:19.367Z,19.80
2023-02-14T13:51:05.175Z,20.77
2023-02-14T13:53:38.568Z,15.55
2023-02-14T13:56:12.305Z,14.18
2023-02-14T13:59:01.066Z,17.08
2023-02-14T14:01:34.699Z,18.20
2023-02-14T14:04:06.265Z,18.27
2023-02-14T14:07:04.922Z,15.77
2023-02-14T14:09:44.720Z,20.27
2023-02-14T14:12:29.628Z,21.25
2023-02-14T14:15:06.495Z,12.73
2023-02-14T14:17:41.086Z,15.77
2023-02-14T14:20:20.634Z,24.88
2023-02-14T14:22:50.093Z,28.67
2023-02-14T14:25:38.325Z,19.20
2023-02-14T14:28:18.792Z,27.23
2023-02-14T14:30:46.724Z,26.73
2023-02-14T14:33:27.344Z,25.88
2023-02-14T14:35:54.746Z,26.38
2023-02-14T14:38:22.389Z,16.02
2023-02-14T14:40:53.703Z,24.95
2023-02-14T14:43:37.130Z,20.92
2023-02-14T14:48:52.634Z,22.42
2023-02-14T14:51:25.100Z,15.50
2023-02-14T14:54:06.421Z,11.85
2023-02-14T14:56:37.659Z,21.75
2023-02-14T14:59:35.825Z,22.75
2023-02-14T15:02:08.016Z,13.57
2023-02-14T15:04:36.518Z,20.92
2023-02-14T15:07:34.889Z,15.82
2023-02-14T15:10:02.890Z,30.02
2023-02-14T15:13:03.542Z,24.52
2023-02-14T15:15:31.443Z,23.23
2023-02-14T15:17:59.032Z,25.02
2023-02-14T15:20:26.866Z,20.90
2023-02-14T15:22:54.646Z,18.73
2023-02-14T15:25:35.422Z,17.27
2023-02-14T15:28:03.578Z,18.85
2023-02-14T15:30:38.326Z,17.52
2023-02-14T15:33:07.722Z,24.27
2023-02-14T15:35:42.552Z,24.30
2023-02-14T15:38:12.810Z,20.77
2023-02-14T15:40:42.330Z,15.60
2023-02-14T15:43:25.496Z,24.80
2023-02-14T15:45:57.667Z,14.30
2023-02-14T15:48:33.740Z,16.15
2023-02-14T15:51:05.189Z,21.52
2023-02-14T15:53:52.333Z,28.85
2023-02-14T15:56:45.269Z,20.83
2023-02-14T16:01:53.742Z,25.25
2023-02-14T16:04:28.101Z,10.05
2023-02-14T16:07:26.312Z,10.02
2023-02-14T16:10:21.835Z,19.83
2023-02-14T16:13:08.934Z,29.42
2023-02-14T16:15:38.926Z,23.83
2023-02-14T16:18:19.525Z,19.73
2023-02-14T16:20:51.643Z,18.38
2023-02-14T16:23:29.809Z,26.45
2023-02-14T16:25:59.972Z,22.60
2023-02-14T16:28:32.006Z,18.35
2023-02-14T16:31:03.414Z,24.48
2023-02-14T16:33:34.875Z,19.08
2023-02-14T16:36:15.176Z,18.88
2023-02-14T16:38:45.621Z,24.83
2023-02-14T16:41:22.444Z,31.13
2023-02-14T16:43:52.149Z,25.80
2023-02-14T16:46:23.055Z,25.50
2023-02-14T16:48:53.354Z,26.65
2023-02-14T16:51:27.828Z,21.90
2023-02-14T16:53:59.094Z,26.45
2023-02-14T16:56:37.639Z,10.90
2023-02-14T16:59:05.455Z,21.33
2023-02-14T17:01:33.550Z,15.55
2023-02-14T17:04:01.088Z,24.45
2023-02-14T17:06:32.892Z,26.40
2023-02-14T17:09:07.592Z,23.05
2023-02-14T17:11:38.841Z,15.05
2023-02-14T17:14:07.094Z,30.13
2023-02-14T17:16:35.230Z,21.58
2023-02-14T17:19:03.790Z,21.13
2023-02-14T17:21:32.142Z,25.13
2023-02-14T17:23:59.699Z,20.30
2023-02-14T17:26:27.351Z,22.92
2023-02-14T17:28:54.917Z,20.35
2023-02-14T17:31:22.558Z,27.08
2023-02-14T17:33:50.353Z,10.98
2023-02-14T17:36:18.106Z,18.15
2023-02-14T17:38:45.769Z,17.65
2023-02-14T17:41:16.839Z,31.60
2023-02-14T17:43:45.132Z,16.58
2023-02-14T17:46:14.655Z,20.45
2023-02-14T17:48:45.731Z,27.63
2023-02-14T17:51:15.127Z,19.45
2023-02-14T17:53:42.881Z,21.80
2023-02-14T17:56:18.310Z,12.32
2023-02-14T17:58:49.439Z,22.40
2023-02-14T18:01:20.041Z,27.75
2023-02-14T18:03:48.306Z,16.33
2023-02-14T18:06:28.258Z,22.52
2023-02-14T18:09:10.505Z,24.50
2023-02-14T18:15:30.615Z,18.63
2023-02-14T18:17:58.502Z,20.80
2023-02-14T18:20:26.331Z,17.17
2023-02-14T18:22:54.077Z,17.40
2023-02-14T18:25:21.679Z,18.20
2023-02-14T18:27:49.211Z,19.38
2023-02-14T18:30:17.413Z,13.85
2023-02-14T18:32:44.993Z,13.13
2023-02-14T18:35:12.630Z,24.95
2023-02-14T18:37:40.363Z,24.00
2023-02-14T18:40:11.164Z,20.48
2023-02-14T18:42:40.093Z,16.98
2023-02-14T18:45:08.164Z,26.20
2023-02-14T18:47:36.067Z,12.55
2023-02-14T18:50:03.820Z,16.45
2023-02-14T18:52:31.452Z,18.00
2023-02-14T18:54:59.770Z,17.58
2023-02-14T18:57:27.528Z,23.13
2023-02-14T18:59:55.157Z,18.40
2023-02-14T19:02:22.914Z,21.42
2023-02-14T19:04:50.995Z,10.57
2023-02-14T19:07:18.983Z,20.13
2023-02-14T19:09:46.577Z,17.20
2023-02-14T19:12:14.210Z,17.25
2023-02-14T19:14:42.060Z,17.17
2023-02-14T19:17:09.601Z,24.05
2023-02-14T19:19:37.258Z,18.52
2023-02-14T19:22:04.892Z,15.48
2023-02-14T19:24:32.570Z,18.95
2023-02-14T19:27:00.265Z,19.02
2023-02-14T19:29:27.970Z,20.02
2023-02-14T19:31:56.228Z,16.80
2023-02-14T19:34:29.714Z,12.57
2023-02-14T19:37:00.151Z,17.88
2023-02-14T19:39:32.601Z,17.10
2023-02-14T19:42:00.901Z,21.15
2023-02-14T19:44:29.616Z,15.60
2023-02-14T19:47:00.317Z,19.63
2023-02-14T19:49:29.387Z,16.60
2023-02-14T19:51:57.977Z,7.57
2023-02-14T19:54:26.019Z,9.90
2023-02-14T19:56:56.522Z,21.17
2023-02-14T19:59:24.234Z,13.80
2023-02-14T20:01:56.980Z,20.77
2023-02-14T20:04:29.623Z,11.60
2023-02-14T20:06:57.537Z,11.05
2023-02-14T20:09:25.969Z,17.25
2023-02-14T20:11:55.992Z,16.70
2023-02-14T20:14:26.533Z,18.05
2023-02-14T20:16:56.943Z,20.60
2023-02-14T20:19:29.932Z,15.98
2023-02-14T20:21:57.460Z,18.20
2023-02-14T20:24:28.658Z,19.02
2023-02-14T20:26:56.931Z,22.25
2023-02-14T20:29:25.559Z,15.85
2023-02-14T20:31:58.393Z,20.65
2023-02-14T20:34:27.195Z,13.07
2023-02-14T20:36:56.245Z,15.00
2023-02-14T20:39:31.572Z,16.67
2023-02-14T20:42:00.248Z,10.18
2023-02-14T20:44:28.544Z,15.98
2023-02-14T20:46:56.783Z,17.50
2023-02-14T20:49:26.595Z,10.23
2023-02-14T20:51:54.728Z,15.57
2023-02-14T20:54:25.284Z,12.43
2023-02-14T20:56:53.462Z,21.30
2023-02-14T20:59:27.414Z,18.83
2023-02-14T21:01:56.943Z,11.77
2023-02-14T21:04:26.268Z,15.75
2023-02-14T21:06:54.346Z,18.23
2023-02-14T21:09:22.015Z,10.30
2023-02-14T21:11:50.688Z,10.05
2023-02-14T21:14:18.284Z,18.52
2023-02-14T21:16:45.868Z,17.38
2023-02-14T21:19:13.461Z,13.05
2023-02-14T21:21:41.264Z,12.65
2023-02-14T21:24:11.568Z,10.85
2023-02-14T21:26:39.735Z,12.85
2023-02-14T21:29:08.965Z,12.57
2023-02-14T21:31:37.015Z,7.95
2023-02-14T21:34:05.246Z,10.10
2023-02-14T21:36:38.154Z,7.18
2023-02-14T21:39:07.104Z,15.45
2023-02-14T21:41:36.636Z,14.88
2023-02-14T21:44:05.493Z,12.48
2023-02-14T21:46:37.162Z,10.13
2023-02-14T21:49:24.749Z,11.18
2023-02-14T21:51:52.469Z,9.82
2023-02-14T21:54:20.190Z,10.38
2023-02-14T21:56:49.575Z,5.38
2023-02-14T21:59:17.251Z,11.93
2023-02-14T22:01:44.986Z,12.73
2023-02-14T22:04:13.089Z,10.13
2023-02-14T22:06:42.257Z,6.93
2023-02-14T22:09:12.624Z,7.63
2023-02-14T22:11:41.105Z,11.98
2023-02-14T22:14:09.270Z,7.53
2023-02-14T22:16:38.481Z,9.98
2023-02-14T22:19:07.553Z,9.32
2023-02-14T22:21:35.704Z,10.00
2023-02-14T22:24:03.361Z,15.20
2023-02-14T22:26:38.950Z,12.27
2023-02-14T22:29:08.725Z,8.25
2023-02-14T22:31:43.715Z,6.03
2023-02-14T22:34:14.426Z,8.70
2023-02-14T22:36:42.284Z,11.75
2023-02-14T22:39:13.823Z,8.32
2023-02-14T22:41:41.443Z,5.03
2023-02-14T22:44:09.593Z,12.35
2023-02-14T22:46:37.676Z,5.82
2023-02-14T22:49:06.687Z,5.85
2023-02-14T22:51:39.641Z,9.60
2023-02-14T22:54:13.812Z,6.97
2023-02-14T22:56:47.096Z,9.68
2023-02-14T22:59:19.337Z,8.35
2023-02-14T23:01:47.722Z,7.25
2023-02-14T23:04:21.912Z,8.40
2023-02-14T23:06:49.830Z,8.32
2023-02-14T23:09:17.630Z,11.23
2023-02-14T23:11:46.308Z,12.02
2023-02-14T23:14:33.250Z,10.02
2023-02-14T23:17:19.251Z,3.88
2023-02-14T23:20:05.742Z,16.73
2023-02-14T23:22:36.202Z,7.75
2023-02-14T23:25:07.403Z,10.20
2023-02-14T23:27:53.106Z,9.10
2023-02-14T23:30:20.745Z,10.05
2023-02-14T23:32:48.472Z,5.90
2023-02-14T23:35:16.264Z,7.50
2023-02-14T23:37:43.828Z,12.07
2023-02-14T23:40:11.822Z,9.85
2023-02-14T23:42:40.446Z,6.63
2023-02-14T23:45:26.679Z,9.30
2023-02-14T23:47:54.373Z,5.65
2023-02-14T23:50:21.936Z,10.25
2023-02-14T23:52:49.533Z,2.13
2023-02-14T23:55:17.062Z,11.45
2023-02-14T23:57:44.699Z,6.65
